Time;durP1;ratioP1;P1;durP2;ratioP2;P2;SDS_P1;SDS_P2;PMS_P1;PMS_P2;Temp;Humidity;BMP_temperature;BMP_pressure;BME280_temperature;BME280_humidity;BME280_pressure;Samples;Min_cycle;Max_cycle;Signal;HPM_P1;HPM_P2
2023/01/23 00:00:09;;;;;;;12.50;11.20;;;;;19.50;102223.00;;;;2084842;28;20704;-68
2023/01/23 00:01:12;;;;;;;12.10;10.90;;;;;19.50;102232.00;;;;2084244;28;20213;-68
2023/01/23 00:02:12;;;;;;;13.95;11.57;;;;;19.40;102219.00;;;;2084507;28;20213;-68
2023/01/23 00:03:13;;;;;;;12.03;10.83;;;;;19.50;102228.00;;;;2084497;28;20210;-68
2023/01/23 00:04:13;;;;;;;13.03;11.80;;;;;19.50;102230.00;;;;2084699;28;20220;-68
2023/01/23 00:05:13;;;;;;;12.93;11.63;;;;;19.50;102220.00;;;;2085304;28;20990;-68
2023/01/23 00:06:14;;;;;;;12.30;11.00;;;;;19.40;102227.00;;;;2085468;28;20720;-69
2023/01/23 00:07:15;;;;;;;12.68;11.38;;;;;19.40;102234.00;;;;2085093;28;20213;-68
2023/01/23 00:08:15;;;;;;;12.40;11.10;;;;;19.40;102224.00;;;;2084985;28;20209;-69
2023/01/23 00:09:16;;;;;;;12.30;11.20;;;;;19.40;102224.00;;;;2083763;28;20213;-68
2023/01/23 00:10:16;;;;;;;11.70;10.40;;;;;19.40;102222.00;;;;2084447;28;20263;-69
2023/01/23 00:11:20;;;;;;;12.27;11.07;;;;;19.40;102227.00;;;;2084549;28;20217;-69
2023/01/23 00:12:20;;;;;;;11.23;10.13;;;;;19.40;102220.00;;;;2084763;28;20214;-69
2023/01/23 00:13:20;;;;;;;11.60;10.17;;;;;19.40;102216.00;;;;2085330;28;20217;-69
2023/01/23 00:14:21;;;;;;;13.20;11.80;;;;;19.40;102221.00;;;;2085247;28;20221;-69
2023/01/23 00:15:21;;;;;;;11.10;10.00;;;;;19.40;102224.00;;;;2085122;28;20259;-68
2023/01/23 00:16:23;;;;;;;11.53;10.43;;;;;19.40;102222.00;;;;2085099;28;20248;-68
2023/01/23 00:17:25;;;;;;;11.57;10.38;;;;;19.40;102228.00;;;;2083886;28;20231;-68
2023/01/23 00:18:26;;;;;;;11.48;10.40;;;;;19.40;102233.00;;;;2083462;28;20354;-69
2023/01/23 00:19:26;;;;;;;11.70;10.50;;;;;19.40;102225.00;;;;2084399;28;20617;-68
2023/01/23 00:20:26;;;;;;;12.13;10.80;;;;;19.40;102234.00;;;;2084751;28;20209;-69
2023/01/23 00:21:27;;;;;;;10.67;9.67;;;;;19.40;102225.00;;;;2085249;28;20220;-69
2023/01/23 00:22:27;;;;;;;11.40;10.30;;;;;19.40;102231.00;;;;2083919;28;20213;-69
2023/01/23 00:23:28;;;;;;;10.77;9.67;;;;;19.40;102220.00;;;;2085079;28;20220;-68
2023/01/23 00:24:28;;;;;;;11.73;10.40;;;;;19.40;102213.00;;;;2085013;28;20205;-69
2023/01/23 00:25:28;;;;;;;11.63;10.53;;;;;19.30;102225.00;;;;2084094;28;20346;-69
2023/01/23 00:26:31;;;;;;;10.23;9.33;;;;;19.30;102226.00;;;;2084515;28;20205;-69
2023/01/23 00:27:32;;;;;;;9.95;9.05;;;;;19.40;102213.00;;;;2084525;28;20752;-68
2023/01/23 00:28:32;;;;;;;10.57;9.47;;;;;19.40;102222.00;;;;2084312;28;20225;-68
2023/01/23 00:29:33;;;;;;;10.87;9.87;;;;;19.40;102220.00;;;;2085197;28;20221;-68
2023/01/23 00:30:33;;;;;;;10.67;9.67;;;;;19.30;102216.00;;;;2085134;28;20205;-68
2023/01/23 00:31:36;;;;;;;9.63;8.80;;;;;19.30;102216.00;;;;2085205;28;20217;-69
2023/01/23 00:32:36;;;;;;;10.20;9.20;;;;;19.30;102220.00;;;;2084784;28;20582;-69
2023/01/23 00:33:36;;;;;;;10.63;9.53;;;;;19.30;102215.00;;;;2084273;28;20217;-69
2023/01/23 00:34:37;;;;;;;10.03;9.03;;;;;19.30;102225.00;;;;2083944;28;20227;-68
2023/01/23 00:35:37;;;;;;;9.90;8.90;;;;;19.30;102212.00;;;;2084358;28;20249;-68
2023/01/23 00:36:41;;;;;;;10.37;9.47;;;;;19.30;102216.00;;;;2084637;28;20214;-68
2023/01/23 00:37:41;;;;;;;10.63;9.63;;;;;19.30;102218.00;;;;2084567;28;20700;-68
2023/01/23 00:38:41;;;;;;;10.63;9.60;;;;;19.30;102221.00;;;;2084193;28;20206;-68
2023/01/23 00:39:42;;;;;;;10.27;9.30;;;;;19.30;102218.00;;;;2084056;28;20291;-69
2023/01/23 00:40:42;;;;;;;10.10;9.20;;;;;19.30;102214.00;;;;2084020;28;20216;-69
2023/01/23 00:41:44;;;;;;;9.57;8.67;;;;;19.30;102222.00;;;;2083185;28;20219;-69
2023/01/23 00:42:44;;;;;;;10.65;9.65;;;;;19.30;102219.00;;;;2084149;28;20220;-69
2023/01/23 00:43:45;;;;;;;9.60;8.70;;;;;19.30;102219.00;;;;2084093;28;20241;-68
2023/01/23 00:44:46;;;;;;;10.10;9.10;;;;;19.30;102219.00;;;;2084020;28;20715;-68
2023/01/23 00:45:46;;;;;;;9.50;8.70;;;;;19.30;102217.00;;;;2083841;28;20213;-69
2023/01/23 00:46:46;;;;;;;10.73;9.53;;;;;19.30;102226.00;;;;2084274;28;20213;-69
2023/01/23 00:47:47;;;;;;;10.53;9.53;;;;;19.30;102220.00;;;;2084092;28;20304;-68
2023/01/23 00:48:47;;;;;;;10.23;9.23;;;;;19.30;102222.00;;;;2083401;28;20213;-69
2023/01/23 00:49:47;;;;;;;10.67;9.70;;;;;19.30;102216.00;;;;2084393;28;20217;-68
2023/01/23 00:50:48;;;;;;;9.07;8.27;;;;;19.20;102227.00;;;;2084157;28;20213;-68
2023/01/23 00:51:49;;;;;;;10.17;9.27;;;;;19.30;102222.00;;;;2085085;28;20313;-68
2023/01/23 00:52:49;;;;;;;9.95;9.02;;;;;19.20;102223.00;;;;2085019;28;20243;-69
2023/01/23 00:53:49;;;;;;;9.30;8.40;;;;;19.20;102218.00;;;;2083963;28;20205;-68
2023/01/23 00:54:50;;;;;;;9.50;8.63;;;;;19.30;102223.00;;;;2083808;28;20228;-69
2023/01/23 00:55:50;;;;;;;9.60;8.80;;;;;19.30;102225.00;;;;2085240;28;20837;-69
2023/01/23 00:56:51;;;;;;;9.40;8.50;;;;;19.20;102220.00;;;;2084098;28;20689;-68
2023/01/23 00:57:51;;;;;;;9.80;8.90;;;;;19.20;102228.00;;;;2084788;28;20220;-68
2023/01/23 00:58:51;;;;;;;9.80;8.90;;;;;19.20;102227.00;;;;2084841;28;20644;-68
2023/01/23 00:59:52;;;;;;;10.20;9.10;;;;;19.20;102239.00;;;;2075833;28;20823;-68
2023/01/23 01:00:52;;;;;;;9.20;8.30;;;;;19.20;102233.00;;;;2075922;28;20612;-68
2023/01/23 01:01:52;;;;;;;9.60;8.67;;;;;19.20;102237.00;;;;2084162;28;20247;-69
2023/01/23 01:02:53;;;;;;;8.93;8.13;;;;;19.20;102228.00;;;;2084083;28;20205;-69
2023/01/23 01:03:53;;;;;;;9.40;8.60;;;;;19.20;102228.00;;;;2083990;28;20200;-68
2023/01/23 01:04:53;;;;;;;9.50;8.60;;;;;19.20;102231.00;;;;2083950;28;20220;-68
2023/01/23 01:05:54;;;;;;;8.90;8.10;;;;;19.20;102223.00;;;;2084359;28;20216;-68
2023/01/23 01:06:54;;;;;;;9.67;8.77;;;;;19.20;102240.00;;;;2084879;28;20275;-68
2023/01/23 01:07:54;;;;;;;9.27;8.30;;;;;19.20;102234.00;;;;2084778;28;20228;-68
2023/01/23 01:08:56;;;;;;;8.63;7.83;;;;;19.20;102235.00;;;;2084551;28;20212;-68
2023/01/23 01:09:56;;;;;;;9.48;8.55;;;;;19.20;102243.00;;;;2084011;28;20670;-68
2023/01/23 01:10:56;;;;;;;9.10;8.30;;;;;19.20;102240.00;;;;2083219;28;20213;-68
2023/01/23 01:11:57;;;;;;;9.40;8.50;;;;;19.10;102237.00;;;;2084115;28;20205;-68
2023/01/23 01:12:58;;;;;;;9.20;8.47;;;;;19.10;102233.00;;;;2083997;28;20673;-68
2023/01/23 01:14:00;;;;;;;7.95;7.25;;;;;19.20;102233.00;;;;2084003;28;20239;-68
2023/01/23 01:15:01;;;;;;;9.40;8.50;;;;;19.10;102230.00;;;;2084778;28;20229;-69
2023/01/23 01:16:01;;;;;;;7.97;7.27;;;;;19.10;102240.00;;;;2084917;28;20235;-69
2023/01/23 01:17:01;;;;;;;8.93;8.03;;;;;19.10;102239.00;;;;2084823;28;20529;-69
2023/01/23 01:18:02;;;;;;;9.20;8.40;;;;;19.10;102238.00;;;;2084454;28;20462;-69
2023/01/23 01:19:04;;;;;;;9.40;8.60;;;;;19.10;102237.00;;;;2083996;28;20662;-68
2023/01/23 01:20:04;;;;;;;8.23;7.43;;;;;19.20;102238.00;;;;2083921;28;20217;-69
2023/01/23 01:21:06;;;;;;;9.23;8.33;;;;;19.10;102237.00;;;;2083872;28;20253;-68
2023/01/23 01:22:07;;;;;;;9.55;8.68;;;;;19.10;102242.00;;;;2082982;28;20209;-69
2023/01/23 01:23:07;;;;;;;9.30;8.40;;;;;19.10;102241.00;;;;2084649;28;20728;-69
2023/01/23 01:24:08;;;;;;;7.93;7.23;;;;;19.10;102235.00;;;;2084379;28;20220;-69
2023/01/23 01:25:08;;;;;;;8.10;7.40;;;;;19.10;102233.00;;;;2084007;28;20229;-68
2023/01/23 01:26:09;;;;;;;8.77;7.97;;;;;19.10;102250.00;;;;2084288;28;20213;-69
2023/01/23 01:27:09;;;;;;;9.13;8.33;;;;;19.10;102245.00;;;;2083921;28;20297;-69
2023/01/23 01:28:09;;;;;;;9.47;8.57;;;;;19.10;102253.00;;;;2082387;28;21030;-68
2023/01/23 01:29:10;;;;;;;8.57;7.77;;;;;19.10;102246.00;;;;2081582;28;20226;-68
2023/01/23 01:30:11;;;;;;;9.37;8.57;;;;;19.10;102245.00;;;;2083629;28;20905;-66
2023/01/23 01:31:13;;;;;;;8.70;7.83;;;;;19.10;102248.00;;;;2083630;28;20242;-68
2023/01/23 01:32:13;;;;;;;8.68;7.88;;;;;19.10;102258.00;;;;2083339;28;20219;-68
2023/01/23 01:33:13;;;;;;;8.77;7.97;;;;;19.10;102251.00;;;;2082461;28;20208;-69
2023/01/23 01:34:13;;;;;;;7.77;7.07;;;;;19.10;102258.00;;;;2082404;28;20237;-68
2023/01/23 01:35:14;;;;;;;7.90;7.20;;;;;19.10;102255.00;;;;2084119;28;20213;-68
2023/01/23 01:36:16;;;;;;;9.37;8.47;;;;;19.10;102255.00;;;;2078249;28;20214;-68
2023/01/23 01:37:16;;;;;;;8.75;7.95;;;;;19.10;102257.00;;;;2084082;28;20351;-68
2023/01/23 01:38:16;;;;;;;7.90;7.30;;;;;19.10;102263.00;;;;2083626;28;20209;-69
2023/01/23 01:39:17;;;;;;;11.20;7.50;;;;;19.10;102260.00;;;;2082918;28;20541;-69
2023/01/23 01:40:22;;;;;;;11.20;7.90;;;;;19.00;102259.00;;;;2082841;28;20715;-69
2023/01/23 01:41:22;;;;;;;8.40;7.70;;;;;19.00;102256.00;;;;2083240;28;20225;-68
2023/01/23 01:42:23;;;;;;;7.97;7.27;;;;;19.00;102265.00;;;;2082599;28;20660;-69
2023/01/23 01:43:24;;;;;;;7.63;7.03;;;;;19.10;102252.00;;;;2083948;28;21800;-69
2023/01/23 01:44:25;;;;;;;8.13;7.43;;;;;19.10;102262.00;;;;2084542;28;20252;-69
2023/01/23 01:46:02;;;;;;;8.20;7.43;;;;;19.10;102264.00;;;;2084521;28;20236;-69
2023/01/23 01:47:03;;;;;;;8.02;7.30;;;;;19.10;102267.00;;;;2083713;28;20227;-69
2023/01/23 01:48:03;;;;;;;7.47;6.80;;;;;19.10;102253.00;;;;2086082;28;20711;-68
2023/01/23 01:49:19;;;;;;;7.70;7.00;;;;;19.00;102251.00;;;;2084696;28;20316;-68
2023/01/23 01:50:19;;;;;;;8.00;7.30;;;;;19.00;102261.00;;;;2074687;28;21190;-68
2023/01/23 01:51:54;;;;;;;8.80;7.90;;;;;19.00;102252.00;;;;2066760;28;20211;-68
2023/01/23 01:52:54;;;;;;;7.82;7.22;;;;;19.00;102254.00;;;;2081957;28;20213;-68
2023/01/23 01:54:01;;;;;;;6.83;6.23;;;;;19.00;102262.00;;;;2083617;28;20604;-68
2023/01/23 01:55:02;;;;;;;7.75;7.00;;;;;19.00;102258.00;;;;2084507;28;20310;-69
2023/01/23 01:56:02;;;;;;;7.57;6.95;;;;;19.00;102265.00;;;;2075611;28;20226;-68
2023/01/23 01:57:11;;;;;;;7.57;6.97;;;;;19.00;102271.00;;;;2075675;28;20237;-69
2023/01/23 01:58:12;;;;;;;6.80;6.20;;;;;19.00;102272.00;;;;2082946;28;20212;-68
2023/01/23 01:59:13;;;;;;;8.10;7.40;;;;;19.00;102273.00;;;;2082828;28;20242;-68
2023/01/23 02:00:15;;;;;;;6.80;6.20;;;;;19.00;102265.00;;;;2074524;28;20569;-68
2023/01/23 02:01:15;;;;;;;7.20;6.60;;;;;19.00;102267.00;;;;2078641;28;20787;-69
2023/01/23 02:02:23;;;;;;;7.50;6.80;;;;;19.00;102270.00;;;;2075804;28;20280;-68
2023/01/23 02:03:24;;;;;;;8.40;7.68;;;;;19.00;102276.00;;;;2084150;28;20300;-68
2023/01/23 02:04:24;;;;;;;7.47;6.77;;;;;19.00;102280.00;;;;2083401;28;20214;-68
2023/01/23 02:05:29;;;;;;;7.40;6.80;;;;;19.00;102270.00;;;;2075896;28;20252;-68
2023/01/23 02:06:29;;;;;;;7.38;6.68;;;;;19.00;102273.00;;;;2083720;28;20206;-69
2023/01/23 02:07:39;;;;;;;7.57;6.97;;;;;19.00;102273.00;;;;2084267;28;20228;-68
2023/01/23 02:08:46;;;;;;;6.82;6.22;;;;;19.00;102267.00;;;;2084244;28;20217;-68
2023/01/23 02:09:47;;;;;;;6.50;5.90;;;;;19.00;102276.00;;;;2075922;28;20800;-68
2023/01/23 02:10:48;;;;;;;7.00;6.40;;;;;19.00;102279.00;;;;2067648;28;20264;-68
2023/01/23 02:11:48;;;;;;;7.70;7.00;;;;;19.00;102270.00;;;;2074570;28;20448;-68
2023/01/23 02:12:50;;;;;;;7.47;6.50;;;;;19.00;102273.00;;;;2080789;28;20312;-68
2023/01/23 02:13:52;;;;;;;7.07;6.45;;;;;18.90;102276.00;;;;2080591;28;20237;-69
2023/01/23 02:14:52;;;;;;;7.10;6.50;;;;;19.00;102273.00;;;;2079993;28;20219;-68
2023/01/23 02:15:53;;;;;;;7.40;6.70;;;;;19.00;102278.00;;;;2082817;28;20806;-68
2023/01/23 02:16:58;;;;;;;7.53;6.83;;;;;19.00;102275.00;;;;2074634;28;20210;-68
2023/01/23 02:17:58;;;;;;;7.63;6.93;;;;;19.00;102279.00;;;;2066170;28;20679;-69
2023/01/23 02:19:00;;;;;;;7.93;6.93;;;;;19.00;102271.00;;;;2075811;28;20248;-69
2023/01/23 02:20:04;;;;;;;8.15;7.45;;;;;19.00;102275.00;;;;2075334;28;20220;-68
2023/01/23 02:21:05;;;;;;;6.80;6.10;;;;;19.00;102267.00;;;;2076003;28;20221;-69
2023/01/23 02:22:19;;;;;;;7.63;6.95;;;;;19.00;102278.00;;;;2075992;28;20214;-69
2023/01/23 02:23:38;;;;;;;6.90;6.30;;;;;19.00;102273.00;;;;2069500;28;20222;-68
2023/01/23 02:24:43;;;;;;;6.90;6.30;;;;;18.90;102281.00;;;;2068872;28;20238;-68
2023/01/23 02:25:43;;;;;;;7.40;6.80;;;;;19.00;102275.00;;;;2057685;28;20282;-68
2023/01/23 02:26:44;;;;;;;7.50;6.80;;;;;19.00;102272.00;;;;2077535;28;20259;-69
2023/01/23 02:27:44;;;;;;;6.30;5.70;;;;;19.00;102272.00;;;;2083044;28;20770;-68
2023/01/23 02:28:50;;;;;;;7.40;6.70;;;;;19.00;102260.00;;;;2082862;28;20470;-68
2023/01/23 02:29:55;;;;;;;7.40;6.70;;;;;19.00;102264.00;;;;2084725;28;20233;-68
2023/01/23 02:30:55;;;;;;;6.95;6.32;;;;;19.00;102263.00;;;;2084384;28;20308;-68
2023/01/23 02:31:55;;;;;;;7.23;6.57;;;;;19.00;102267.00;;;;2083854;28;20228;-68
2023/01/23 02:33:31;;;;;;;6.80;6.20;;;;;18.90;102269.00;;;;2083596;28;20240;-68
2023/01/23 02:34:31;;;;;;;7.85;7.05;;;;;18.90;102278.00;;;;2082093;28;20217;-68
2023/01/23 02:35:31;;;;;;;6.47;5.87;;;;;18.90;102273.00;;;;2083121;28;20287;-69
2023/01/23 02:36:33;;;;;;;7.00;6.40;;;;;18.90;102265.00;;;;2083577;28;20217;-68
2023/01/23 02:37:34;;;;;;;8.00;7.20;;;;;18.90;102265.00;;;;2065024;28;20664;-69
2023/01/23 02:38:41;;;;;;;6.43;5.93;;;;;18.90;102269.00;;;;2066485;28;20225;-68
2023/01/23 02:39:42;;;;;;;6.55;6.05;;;;;18.90;102263.00;;;;2066635;28;20243;-68
2023/01/23 02:40:42;;;;;;;6.50;6.00;;;;;18.90;102259.00;;;;2074573;28;20217;-68
2023/01/23 02:41:47;;;;;;;6.73;6.13;;;;;18.90;102255.00;;;;2074737;28;20680;-68
2023/01/23 02:42:47;;;;;;;6.60;5.97;;;;;18.90;102261.00;;;;2077385;28;20221;-68
2023/01/23 02:43:47;;;;;;;6.80;6.20;;;;;18.90;102261.00;;;;2073696;28;20213;-68
2023/01/23 02:44:48;;;;;;;6.93;6.33;;;;;18.90;102255.00;;;;2071346;28;20241;-69
2023/01/23 02:45:49;;;;;;;6.78;6.18;;;;;18.90;102251.00;;;;2081496;28;20232;-68
2023/01/23 02:46:49;;;;;;;7.33;6.73;;;;;18.90;102247.00;;;;2084679;28;20205;-68
2023/01/23 02:47:49;;;;;;;6.83;6.33;;;;;18.90;102244.00;;;;2082756;28;20221;-68
2023/01/23 02:48:50;;;;;;;6.90;6.30;;;;;18.90;102249.00;;;;2083185;28;20208;-68
2023/01/23 02:49:50;;;;;;;6.80;6.20;;;;;18.90;102241.00;;;;2083348;28;20216;-68
2023/01/23 02:50:50;;;;;;;6.70;6.10;;;;;18.90;102239.00;;;;2083652;28;20208;-68
2023/01/23 02:51:51;;;;;;;6.53;6.00;;;;;18.90;102248.00;;;;2083938;28;20224;-68
2023/01/23 02:52:53;;;;;;;6.17;5.57;;;;;18.90;102236.00;;;;2083936;28;20213;-69
2023/01/23 02:53:53;;;;;;;7.88;6.05;;;;;18.90;102246.00;;;;2084223;28;20224;-68
2023/01/23 02:54:54;;;;;;;7.60;6.97;;;;;18.90;102239.00;;;;2083918;28;20224;-68
2023/01/23 02:55:55;;;;;;;6.30;5.80;;;;;18.90;102241.00;;;;2084200;28;20736;-68
2023/01/23 02:56:56;;;;;;;6.70;6.10;;;;;18.90;102240.00;;;;2083944;28;20669;-68
2023/01/23 03:00:34;;;;;;;6.70;6.20;;;;;18.80;102243.00;;;;2083329;28;20584;-68
2023/01/23 03:01:34;;;;;;;7.60;6.90;;;;;18.80;102236.00;;;;2082586;28;20213;-68
2023/01/23 03:02:35;;;;;;;6.73;6.23;;;;;18.80;102248.00;;;;2078467;28;20235;-68
2023/01/23 03:03:36;;;;;;;7.13;6.53;;;;;18.80;102250.00;;;;2083466;28;20288;-69
2023/01/23 03:04:36;;;;;;;6.87;6.27;;;;;18.80;102239.00;;;;2083950;28;20209;-68
2023/01/23 03:05:37;;;;;;;6.43;5.93;;;;;18.80;102249.00;;;;2084253;28;20208;-68
2023/01/23 03:06:37;;;;;;;6.37;5.87;;;;;18.80;102243.00;;;;2083430;28;20205;-69
2023/01/23 03:07:37;;;;;;;6.53;6.00;;;;;18.80;102242.00;;;;2083074;28;20224;-68
2023/01/23 03:08:47;;;;;;;6.90;6.30;;;;;18.80;102245.00;;;;2083105;28;20219;-68
2023/01/23 03:09:48;;;;;;;6.85;6.25;;;;;18.80;102237.00;;;;2083189;28;20270;-68
2023/01/23 03:10:49;;;;;;;7.03;6.43;;;;;18.80;102241.00;;;;2083307;28;20281;-68
2023/01/23 03:11:49;;;;;;;6.23;5.63;;;;;18.80;102244.00;;;;2083661;28;20212;-69
2023/01/23 03:12:50;;;;;;;6.17;5.60;;;;;18.80;102247.00;;;;2084078;28;20201;-68
2023/01/23 03:13:50;;;;;;;7.40;6.70;;;;;18.80;102243.00;;;;2083946;28;20285;-68
2023/01/23 03:14:53;;;;;;;6.67;6.10;;;;;18.80;102245.00;;;;2084744;28;20209;-68
2023/01/23 03:15:56;;;;;;;7.22;6.63;;;;;18.80;102250.00;;;;2083959;28;20229;-68
2023/01/23 03:16:57;;;;;;;7.32;6.72;;;;;18.80;102212.00;;;;2085435;28;20205;-68
2023/01/23 03:17:57;;;;;;;6.95;6.35;;;;;18.80;102243.00;;;;2085423;28;20225;-68
2023/01/23 03:19:03;;;;;;;6.90;6.30;;;;;18.80;102243.00;;;;2085659;28;20603;-68
2023/01/23 03:20:05;;;;;;;6.60;6.00;;;;;18.80;102247.00;;;;2085468;28;20220;-68
2023/01/23 03:21:05;;;;;;;7.22;6.53;;;;;18.80;102253.00;;;;2084253;28;20723;-68
2023/01/23 03:22:06;;;;;;;7.00;6.40;;;;;18.80;102251.00;;;;2084235;28;20223;-69
2023/01/23 03:23:07;;;;;;;6.03;5.53;;;;;18.80;102214.00;;;;2084655;28;20739;-68
2023/01/23 03:24:08;;;;;;;7.00;6.40;;;;;18.80;102261.00;;;;2088266;28;20235;-68
2023/01/23 03:25:08;;;;;;;6.70;6.10;;;;;18.80;102267.00;;;;2087976;28;20475;-69
2023/01/23 03:26:09;;;;;;;6.90;6.30;;;;;18.80;102231.00;;;;2088819;28;20213;-68
2023/01/23 03:27:09;;;;;;;6.50;5.90;;;;;18.80;102261.00;;;;2084615;28;20209;-68
2023/01/23 03:30:11;;;;;;;6.70;6.10;;;;;18.80;102262.00;;;;2084740;28;20252;-69
2023/01/23 03:30:49;;;;;;;7.68;6.97;;;;;18.80;102273.00;;;;2084725;28;20212;-69
2023/01/23 03:31:49;;;;;;;6.97;6.37;;;;;18.80;102275.00;;;;2085482;28;20255;-69
2023/01/23 03:32:49;;;;;;;7.23;6.57;;;;;18.80;102274.00;;;;2084994;28;20704;-68
2023/01/23 03:33:50;;;;;;;6.70;6.10;;;;;18.70;102280.00;;;;2084946;28;20216;-69
2023/01/23 03:34:50;;;;;;;6.53;5.93;;;;;18.80;102278.00;;;;2084828;28;20213;-69
2023/01/23 03:35:50;;;;;;;6.33;5.83;;;;;18.80;102277.00;;;;2085722;28;20202;-68
2023/01/23 03:36:51;;;;;;;6.23;5.73;;;;;18.80;102282.00;;;;2083750;28;20245;-69
2023/01/23 03:37:51;;;;;;;6.33;5.83;;;;;18.80;102282.00;;;;2084030;28;20211;-68
2023/01/23 03:41:35;;;;;;;6.68;6.07;;;;;18.80;102280.00;;;;2077459;28;20218;-69
2023/01/23 03:42:35;;;;;;;7.10;6.50;;;;;18.80;102285.00;;;;2078324;28;20234;-68
2023/01/23 03:43:35;;;;;;;6.37;5.80;;;;;18.70;102283.00;;;;2085647;28;20213;-69
2023/01/23 03:44:36;;;;;;;6.77;6.23;;;;;18.70;102276.00;;;;2084711;28;20237;-68
2023/01/23 03:45:36;;;;;;;6.97;6.37;;;;;18.80;102282.00;;;;2085307;28;20216;-69
2023/01/23 03:46:36;;;;;;;6.50;6.00;;;;;18.80;102279.00;;;;2085115;28;20216;-69
2023/01/23 03:47:37;;;;;;;7.30;5.80;;;;;18.80;102278.00;;;;2084124;28;20691;-69
2023/01/23 03:48:38;;;;;;;6.83;6.23;;;;;18.70;102279.00;;;;2084457;28;20216;-68
2023/01/23 03:49:38;;;;;;;6.32;5.82;;;;;18.70;102279.00;;;;2084017;28;20259;-69
2023/01/23 03:50:39;;;;;;;6.50;6.00;;;;;18.70;102277.00;;;;2083953;28;20707;-69
2023/01/23 03:51:39;;;;;;;7.20;6.60;;;;;18.80;102285.00;;;;2085447;28;20228;-69
2023/01/23 03:52:39;;;;;;;6.80;6.20;;;;;18.70;102286.00;;;;2085516;28;20749;-68
2023/01/23 03:53:40;;;;;;;7.27;5.73;;;;;18.70;102288.00;;;;2085547;28;20585;-68
2023/01/23 03:54:41;;;;;;;5.87;5.37;;;;;18.70;102280.00;;;;2085193;28;20680;-68
2023/01/23 03:55:44;;;;;;;6.63;6.03;;;;;18.70;102284.00;;;;2087802;28;20704;-69
2023/01/23 03:56:44;;;;;;;6.50;6.00;;;;;18.70;102281.00;;;;2083972;28;20477;-68
2023/01/23 03:57:44;;;;;;;7.10;6.40;;;;;18.70;102289.00;;;;2084503;28;20680;-68
2023/01/23 03:58:45;;;;;;;6.53;5.93;;;;;18.70;102287.00;;;;2084397;28;20279;-69
2023/01/23 03:59:45;;;;;;;6.60;6.00;;;;;18.70;102286.00;;;;2084661;28;20686;-68
2023/01/23 04:00:45;;;;;;;5.70;5.30;;;;;18.70;102292.00;;;;2084544;28;20224;-68
2023/01/23 04:01:46;;;;;;;7.10;6.50;;;;;18.70;102292.00;;;;2084449;28;20257;-68
2023/01/23 04:02:47;;;;;;;6.20;5.70;;;;;18.70;102284.00;;;;2084501;28;20232;-68
2023/01/23 04:03:48;;;;;;;7.20;6.60;;;;;18.70;102279.00;;;;2085198;28;20210;-69
2023/01/23 04:04:48;;;;;;;5.65;5.15;;;;;18.70;102288.00;;;;2084543;28;20217;-69
2023/01/23 04:05:54;;;;;;;6.53;6.03;;;;;18.70;102285.00;;;;2085101;28;20217;-68
2023/01/23 04:06:54;;;;;;;6.72;6.13;;;;;18.70;102290.00;;;;2084930;28;20213;-68
2023/01/23 04:07:54;;;;;;;6.73;6.20;;;;;18.70;102288.00;;;;2084141;28;20333;-68
2023/01/23 04:08:57;;;;;;;6.27;5.77;;;;;18.70;102291.00;;;;2084213;28;20219;-68
2023/01/23 04:09:57;;;;;;;7.13;6.55;;;;;18.70;102288.00;;;;2084463;28;20228;-69
2023/01/23 04:11:04;;;;;;;6.63;6.07;;;;;18.70;102292.00;;;;2084998;28;20215;-68
2023/01/23 04:12:05;;;;;;;7.00;6.40;;;;;18.70;102288.00;;;;2085390;28;21430;-68
2023/01/23 04:13:05;;;;;;;7.87;6.53;;;;;18.70;102292.00;;;;2085267;28;20224;-68
2023/01/23 04:14:05;;;;;;;6.20;5.60;;;;;18.70;102286.00;;;;2073246;28;20230;-68
2023/01/23 04:15:06;;;;;;;6.50;5.90;;;;;18.70;102290.00;;;;2083566;28;20213;-68
2023/01/23 04:16:07;;;;;;;6.97;6.37;;;;;18.70;102282.00;;;;2089549;28;20217;-69
2023/01/23 04:17:07;;;;;;;7.27;6.67;;;;;18.70;102283.00;;;;2084428;28;20456;-68
2023/01/23 04:18:07;;;;;;;6.80;6.20;;;;;18.70;102287.00;;;;2084314;28;20236;-69
2023/01/23 04:19:08;;;;;;;7.03;6.43;;;;;18.70;102291.00;;;;2084501;28;20721;-69
2023/01/23 04:20:09;;;;;;;6.60;6.00;;;;;18.70;102283.00;;;;2084607;28;20662;-68
2023/01/23 04:21:09;;;;;;;6.47;5.95;;;;;18.70;102291.00;;;;2085324;28;20216;-68
2023/01/23 04:22:10;;;;;;;6.53;5.93;;;;;18.70;102291.00;;;;2085294;28;20217;-68
2023/01/23 04:23:10;;;;;;;7.83;6.23;;;;;18.70;102302.00;;;;2083854;28;20228;-69
2023/01/23 04:24:10;;;;;;;7.13;6.50;;;;;18.70;102302.00;;;;2083074;28;20704;-68
2023/01/23 04:25:10;;;;;;;7.30;6.70;;;;;18.70;102289.00;;;;2083467;28;20257;-69
2023/01/23 04:26:11;;;;;;;7.17;6.57;;;;;18.60;102291.00;;;;2083714;28;20213;-69
2023/01/23 04:27:11;;;;;;;7.00;6.40;;;;;18.60;102300.00;;;;2085089;28;20213;-68
2023/01/23 04:28:12;;;;;;;6.43;5.93;;;;;18.60;102301.00;;;;2084879;28;20253;-68
2023/01/23 04:29:12;;;;;;;6.50;5.90;;;;;18.50;102300.00;;;;2085039;28;20217;-69
2023/01/23 04:30:13;;;;;;;6.93;6.37;;;;;18.60;102295.00;;;;2085288;28;20213;-69
2023/01/23 04:31:13;;;;;;;7.37;6.67;;;;;18.60;102293.00;;;;2084858;28;20213;-68
2023/01/23 04:32:13;;;;;;;7.20;6.60;;;;;18.60;102284.00;;;;2084234;28;20251;-68
2023/01/23 04:33:14;;;;;;;6.70;6.10;;;;;18.60;102286.00;;;;2084397;28;20221;-69
2023/01/23 04:34:14;;;;;;;6.53;6.03;;;;;18.60;102274.00;;;;2084175;28;20221;-68
2023/01/23 04:35:14;;;;;;;6.80;6.20;;;;;18.60;102280.00;;;;2084233;28;20302;-68
2023/01/23 04:36:16;;;;;;;6.80;6.20;;;;;18.60;102291.00;;;;2085208;28;20212;-69
2023/01/23 04:37:16;;;;;;;7.88;7.18;;;;;18.60;102286.00;;;;2085082;28;20274;-69
2023/01/23 04:38:16;;;;;;;6.97;6.40;;;;;18.60;102300.00;;;;2084876;28;20517;-68
2023/01/23 04:39:16;;;;;;;6.90;6.23;;;;;18.60;102296.00;;;;2084903;28;20240;-69
2023/01/23 04:40:17;;;;;;;6.70;6.10;;;;;18.60;102289.00;;;;2084055;28;20213;-69
2023/01/23 04:41:23;;;;;;;7.00;6.40;;;;;18.60;102290.00;;;;2084278;28;20224;-68
2023/01/23 04:42:23;;;;;;;8.60;7.82;;;;;18.60;102290.00;;;;2078576;28;20209;-68
2023/01/23 04:43:24;;;;;;;6.33;5.83;;;;;18.60;102285.00;;;;2084539;28;20214;-68
2023/01/23 04:44:25;;;;;;;7.60;7.00;;;;;18.60;102291.00;;;;2084075;28;20213;-69
2023/01/23 04:45:26;;;;;;;7.78;7.07;;;;;18.60;102296.00;;;;2084254;28;20208;-69
2023/01/23 04:46:26;;;;;;;7.10;6.50;;;;;18.60;102297.00;;;;2084678;28;20241;-68
2023/01/23 04:47:26;;;;;;;8.00;7.30;;;;;18.60;102303.00;;;;2084350;28;20835;-68
2023/01/23 04:48:27;;;;;;;7.63;6.90;;;;;18.60;102296.00;;;;2085324;28;20601;-68
2023/01/23 04:49:27;;;;;;;7.03;6.43;;;;;18.60;102298.00;;;;2085112;28;20574;-68
2023/01/23 04:50:27;;;;;;;7.20;6.60;;;;;18.60;102298.00;;;;2084908;28;20224;-68
2023/01/23 04:51:28;;;;;;;7.73;7.00;;;;;18.60;102299.00;;;;2084685;28;20201;-69
2023/01/23 04:52:28;;;;;;;7.60;6.90;;;;;18.60;102298.00;;;;2084350;28;20236;-69
2023/01/23 04:53:28;;;;;;;7.90;7.10;;;;;18.60;102299.00;;;;2084223;28;20219;-69
2023/01/23 04:54:29;;;;;;;7.23;6.63;;;;;18.60;102295.00;;;;2083457;28;20236;-68
2023/01/23 04:55:29;;;;;;;6.63;6.13;;;;;18.60;102301.00;;;;2087096;28;20220;-69
2023/01/23 04:56:29;;;;;;;7.40;6.70;;;;;18.60;102298.00;;;;2084112;28;20197;-69
2023/01/23 04:57:30;;;;;;;7.47;6.87;;;;;18.60;102290.00;;;;2084133;28;20217;-69
2023/01/23 04:58:30;;;;;;;7.75;7.03;;;;;18.60;102290.00;;;;2082659;28;20205;-69
2023/01/23 04:59:31;;;;;;;7.30;6.70;;;;;18.60;102288.00;;;;2083462;28;20685;-68
2023/01/23 05:00:31;;;;;;;7.33;6.70;;;;;18.60;102289.00;;;;2084534;28;20275;-69
2023/01/23 05:01:32;;;;;;;7.23;6.53;;;;;18.60;102291.00;;;;2084327;28;20218;-69
2023/01/23 05:02:32;;;;;;;7.60;7.00;;;;;18.60;102293.00;;;;2084073;28;20761;-68
2023/01/23 05:03:33;;;;;;;7.00;6.50;;;;;18.60;102285.00;;;;2084773;28;20208;-68
2023/01/23 05:04:34;;;;;;;7.25;6.65;;;;;18.60;102288.00;;;;2084060;28;20201;-69
2023/01/23 05:05:34;;;;;;;6.90;6.30;;;;;18.60;102292.00;;;;2083211;28;20813;-68
2023/01/23 05:06:34;;;;;;;7.33;6.63;;;;;18.60;102287.00;;;;2083417;28;20217;-68
2023/01/23 05:07:35;;;;;;;7.20;6.60;;;;;18.50;102289.00;;;;2083696;28;20248;-68
2023/01/23 05:08:35;;;;;;;6.90;6.37;;;;;18.60;102289.00;;;;2084065;28;20210;-69
2023/01/23 05:09:35;;;;;;;7.13;6.50;;;;;18.60;102288.00;;;;2084931;28;20213;-69